ESGJ

Jönköping Airport

Jönköping, Sweden
METAR ESGJ 260250Z AUTO 01008KT 9999 OVC068/// M08/M10 Q1036
Observed Flight Rules
Feb-26 @ 02:50 UTC (38 minutes ago) Visual Flight Rules
Wind Visibility Clouds
10° at 8 knots 10,000+ meters
  • Overcast at 6,800' AGL
Temperatures Readings
Current -8°C / 18°F
Dewpoint -10°C / 14°F
Humidity 86%
Altimeter 30.59" Hg
Pressure 1036 hPa
Elevation 232
METAR ESGJ 260250Z AUTO 01008KT 9999 OVC068/// M08/M10 Q1036
Observed Flight Rules
Feb-26 @ 02:50 UTC
(38 minutes ago)
VFR
Wind Visibility
10° at 8 knots 10,000+ meters
Clouds
  • Overcast at 6,800' AGL
Temperature Dewpoint
-8°C / 18°F -10°C / 14°F
Humidity Altimeter Pressure
86% 30.59" Hg 1036 hPa